createdAt,value
2019-04-23T00:01:36.333Z,100661.05
2019-04-23T00:04:08.537Z,100656.53
2019-04-23T00:06:43.218Z,100657.37
2019-04-23T00:09:27.438Z,100660.77
2019-04-23T00:11:48.239Z,100658.59
2019-04-23T00:14:20.360Z,100656.38
2019-04-23T00:16:52.605Z,100662.14
2019-04-23T00:19:27.634Z,100658.76
2019-04-23T00:21:57.008Z,100660.98
2019-04-23T00:27:25.493Z,100658.14
2019-04-23T00:29:57.630Z,100654.63
2019-04-23T00:35:06.024Z,100655.03
2019-04-23T00:39:57.834Z,100655.05
2019-04-23T00:42:38.529Z,100660.00
2019-04-23T00:45:03.419Z,100661.89
2019-04-23T00:47:37.916Z,100666.02
2019-04-23T00:50:12.820Z,100663.09
2019-04-23T00:52:40.514Z,100667.50
2019-04-23T00:55:15.916Z,100670.70
2019-04-23T00:57:48.872Z,100665.94
2019-04-23T01:00:26.017Z,100664.97
2019-04-23T01:03:03.556Z,100664.71
2019-04-23T01:05:29.408Z,100669.64
2019-04-23T01:08:06.767Z,100666.10
2019-04-23T01:10:34.568Z,100668.67
2019-04-23T01:13:14.739Z,100666.72
2019-04-23T01:18:38.225Z,100665.77
2019-04-23T01:20:53.710Z,100659.82
2019-04-23T01:23:41.842Z,100667.17
2019-04-23T01:26:26.532Z,100660.80
2019-04-23T01:29:03.423Z,100664.09
2019-04-23T01:31:33.171Z,100662.97
2019-04-23T01:34:13.549Z,100665.70
2019-04-23T01:36:40.130Z,100669.70
2019-04-23T01:39:17.813Z,100666.52
2019-04-23T01:41:59.560Z,100665.14
2019-04-23T01:44:32.753Z,100666.41
2019-04-23T01:47:00.654Z,100670.48
2019-04-23T01:49:37.684Z,100668.57
2019-04-23T01:52:09.440Z,100670.42
2019-04-23T01:54:38.483Z,100672.33
2019-04-23T01:57:14.961Z,100669.67
2019-04-23T01:59:49.383Z,100669.90
2019-04-23T02:02:31.644Z,100670.15
2019-04-23T02:05:01.108Z,100677.83
2019-04-23T02:07:32.510Z,100674.81
2019-04-23T02:12:35.721Z,100680.26
2019-04-23T02:15:03.707Z,100681.30
2019-04-23T02:17:38.665Z,100681.58
2019-04-23T02:20:19.341Z,100678.14
2019-04-23T02:23:09.833Z,100680.71
2019-04-23T02:25:35.681Z,100680.03
2019-04-23T02:28:06.050Z,100681.09
2019-04-23T02:33:26.287Z,100687.95
2019-04-23T02:35:50.179Z,100689.01
2019-04-23T02:43:16.714Z,100692.60
2019-04-23T02:56:15.284Z,100697.30
2019-04-23T02:58:57.688Z,100701.03
2019-04-23T03:03:49.668Z,100711.66
2019-04-23T03:06:22.821Z,100709.55
2019-04-23T03:08:46.646Z,100702.48
2019-04-23T03:14:03.471Z,100704.78
2019-04-23T03:37:48.951Z,100730.20
2019-04-23T03:40:11.569Z,100729.78
2019-04-23T03:45:36.912Z,100733.48
2019-04-23T03:47:48.544Z,100729.25
2019-04-23T03:50:32.553Z,100725.30
2019-04-23T03:52:44.796Z,100726.97
2019-04-23T03:55:48.002Z,100725.36
2019-04-23T03:58:07.615Z,100725.23
2019-04-23T04:00:39.639Z,100726.23
2019-04-23T04:05:49.707Z,100725.45
2019-04-23T04:08:18.437Z,100729.40
2019-04-23T04:11:04.198Z,100730.73
2019-04-23T04:13:31.050Z,100732.73
2019-04-23T04:18:44.380Z,100727.74
2019-04-23T04:21:09.931Z,100726.19
2019-04-23T04:23:43.595Z,100730.30
2019-04-23T04:26:08.982Z,100734.34
2019-04-23T04:31:13.770Z,100728.53
2019-04-23T04:34:00.667Z,100732.32
2019-04-23T04:36:21.867Z,100728.14
2019-04-23T04:44:17.089Z,100730.86
2019-04-23T04:46:44.196Z,100726.05
2019-04-23T04:49:01.716Z,100723.19
2019-04-23T04:51:49.392Z,100724.06
2019-04-23T04:56:55.018Z,100715.56
2019-04-23T04:59:13.904Z,100721.52
2019-04-23T05:01:58.540Z,100720.48
2019-04-23T05:04:28.505Z,100719.96
2019-04-23T05:12:18.923Z,100726.91
2019-04-23T05:14:43.976Z,100729.30
2019-04-23T05:17:16.046Z,100726.26
2019-04-23T05:22:22.665Z,100726.80
2019-04-23T05:24:48.286Z,100720.55
2019-04-23T05:27:17.541Z,100730.27
2019-04-23T05:30:02.944Z,100730.88
2019-04-23T05:32:27.303Z,100726.92
2019-04-23T05:35:03.510Z,100728.48
2019-04-23T05:37:50.564Z,100735.95
2019-04-23T05:40:24.178Z,100723.35
2019-04-23T05:42:49.367Z,100728.22
2019-04-23T05:45:15.867Z,100732.66
2019-04-23T05:47:59.019Z,100736.09
2019-04-23T05:50:35.786Z,100733.40
2019-04-23T05:53:01.359Z,100736.49
2019-04-23T05:55:27.263Z,100738.45
2019-04-23T05:58:06.761Z,100736.81
2019-04-23T06:00:44.932Z,100741.39
2019-04-23T06:03:18.678Z,100742.05
2019-04-23T06:08:34.589Z,100752.18
2019-04-23T06:11:14.500Z,100751.84
2019-04-23T06:13:35.583Z,100750.79
2019-04-23T06:15:58.084Z,100756.39
2019-04-23T06:18:40.608Z,100754.09
2019-04-23T06:23:46.392Z,100758.80
2019-04-23T06:26:26.880Z,100755.24
2019-04-23T06:28:50.813Z,100756.55
2019-04-23T06:31:27.740Z,100759.59
2019-04-23T06:33:54.258Z,100763.19
2019-04-23T06:41:41.695Z,100769.98
2019-04-23T06:44:14.520Z,100775.20
2019-04-23T06:49:20.116Z,100773.89
2019-04-23T06:52:07.093Z,100770.82
2019-04-23T06:54:37.872Z,100778.14
2019-04-23T06:57:10.543Z,100781.88
2019-04-23T06:59:33.553Z,100780.77
2019-04-23T07:02:11.847Z,100784.50
2019-04-23T07:04:49.857Z,100787.92
2019-04-23T07:09:44.072Z,100785.44
2019-04-23T07:12:25.770Z,100787.06
2019-04-23T07:17:24.922Z,100792.03
2019-04-23T07:19:56.650Z,100791.08
2019-04-23T07:22:29.006Z,100789.68
2019-04-23T07:27:30.334Z,100792.76
2019-04-23T07:30:20.932Z,100793.32
2019-04-23T07:32:44.716Z,100797.89
2019-04-23T07:35:11.643Z,100796.28
2019-04-23T07:37:57.072Z,100795.48
2019-04-23T07:40:27.544Z,100796.03
2019-04-23T07:45:53.128Z,100797.86
2019-04-23T07:48:29.234Z,100796.59
2019-04-23T07:51:14.103Z,100803.45
2019-04-23T07:53:42.876Z,100800.95
2019-04-23T07:56:11.601Z,100804.62
2019-04-23T07:58:36.485Z,100799.37
2019-04-23T08:01:13.793Z,100798.73
2019-04-23T08:06:21.973Z,100796.06
2019-04-23T08:08:56.354Z,100801.58
2019-04-23T08:14:05.180Z,100807.32
2019-04-23T08:16:40.234Z,100801.13
2019-04-23T08:19:15.426Z,100812.81
2019-04-23T08:21:37.874Z,100805.55
2019-04-23T08:24:38.920Z,100804.68
2019-04-23T08:27:18.146Z,100806.62
2019-04-23T08:29:44.319Z,100805.16
2019-04-23T08:32:18.574Z,100808.73
2019-04-23T08:37:45.424Z,100807.53
2019-04-23T08:40:01.886Z,100803.06
2019-04-23T08:42:45.754Z,100807.70
2019-04-23T08:45:27.799Z,100817.27
2019-04-23T08:48:15.444Z,100813.95
2019-04-23T08:50:46.705Z,100814.23
2019-04-23T08:55:50.046Z,100809.97
2019-04-23T08:58:27.309Z,100808.88
2019-04-23T09:06:00.645Z,100809.39
2019-04-23T09:08:32.903Z,100804.20
2019-04-23T09:11:27.570Z,100805.41
2019-04-23T09:16:15.574Z,100799.25
2019-04-23T09:18:46.092Z,100800.15
2019-04-23T09:21:24.000Z,100798.36
2019-04-23T09:23:54.012Z,100799.52
2019-04-23T09:26:22.429Z,100801.68
2019-04-23T09:29:47.471Z,100801.67
2019-04-23T09:32:14.855Z,100799.98
2019-04-23T09:34:26.201Z,100798.72
2019-04-23T09:37:06.195Z,100792.84
2019-04-23T09:39:45.867Z,100797.64
2019-04-23T09:42:22.625Z,100795.52
2019-04-23T09:44:58.373Z,100793.26
2019-04-23T09:47:53.493Z,100791.52
2019-04-23T09:50:26.448Z,100791.77
2019-04-23T10:03:02.424Z,100785.98
2019-04-23T10:05:30.910Z,100783.84
2019-04-23T10:08:02.911Z,100786.69
2019-04-23T10:10:25.987Z,100774.95
2019-04-23T10:12:59.946Z,100780.31
2019-04-23T10:15:36.358Z,100783.14
2019-04-23T10:18:04.607Z,100783.94
2019-04-23T10:20:36.390Z,100787.75
2019-04-23T10:23:08.352Z,100794.76
2019-04-23T10:25:40.321Z,100795.44
2019-04-23T10:28:25.073Z,100790.02
2019-04-23T10:30:56.908Z,100785.39
2019-04-23T10:33:29.634Z,100795.16
2019-04-23T10:36:08.485Z,100780.77
2019-04-23T10:38:36.253Z,100785.69
2019-04-23T10:41:06.924Z,100786.44
2019-04-23T10:43:40.001Z,100788.42
2019-04-23T10:46:43.120Z,100786.68
2019-04-23T10:49:41.944Z,100784.83
2019-04-23T10:57:03.918Z,100791.41
2019-04-23T10:59:38.917Z,100782.14
2019-04-23T11:05:00.513Z,100789.67
2019-04-23T11:09:55.741Z,100785.33
2019-04-23T11:12:42.081Z,100790.91
2019-04-23T11:17:52.034Z,100795.75
2019-04-23T11:20:25.367Z,100789.61
2019-04-23T11:28:02.550Z,100787.04
2019-04-23T11:30:32.403Z,100786.53
2019-04-23T11:33:14.795Z,100783.08
2019-04-23T11:35:49.050Z,100781.68
2019-04-23T11:41:09.082Z,100772.83
2019-04-23T11:43:13.162Z,100768.86
2019-04-23T11:51:26.314Z,100772.36
2019-04-23T11:53:29.694Z,100771.22
2019-04-23T11:55:55.030Z,100769.34
2019-04-23T12:01:11.648Z,100763.88
2019-04-23T12:03:46.856Z,100765.11
2019-04-23T12:06:51.012Z,100760.23
2019-04-23T12:09:09.945Z,100762.37
2019-04-23T12:14:37.290Z,100758.05
2019-04-23T12:17:11.214Z,100760.80
2019-04-23T12:45:27.128Z,100745.27
2019-04-23T12:47:58.364Z,100748.31
2019-04-23T12:58:03.816Z,100746.78
2019-04-23T13:03:09.821Z,100737.36
2019-04-23T13:05:32.782Z,100739.36
2019-04-23T13:08:26.898Z,100734.35
2019-04-23T13:10:48.069Z,100733.95
2019-04-23T13:15:53.703Z,100725.13
2019-04-23T13:18:31.641Z,100728.98
2019-04-23T13:21:01.507Z,100722.89
2019-04-23T13:25:59.568Z,100728.58
2019-04-23T13:28:37.666Z,100726.44
2019-04-23T13:31:12.498Z,100720.52
2019-04-23T13:33:44.123Z,100721.53
2019-04-23T13:36:29.091Z,100722.73
2019-04-23T13:41:20.400Z,100722.23
2019-04-23T13:43:47.883Z,100717.42
2019-04-23T13:46:32.465Z,100715.86
2019-04-23T13:49:03.897Z,100722.69
2019-04-23T13:51:33.825Z,100720.97
2019-04-23T13:54:08.174Z,100719.92
2019-04-23T13:59:36.812Z,100716.77
2019-04-23T14:02:10.760Z,100720.59
2019-04-23T14:07:05.853Z,100713.61
2019-04-23T14:12:17.681Z,100713.41
2019-04-23T14:14:55.948Z,100710.30
2019-04-23T14:17:38.045Z,100706.01
2019-04-23T14:20:05.050Z,100704.55
2019-04-23T14:22:52.600Z,100705.36
2019-04-23T14:27:43.336Z,100702.45
2019-04-23T14:32:48.703Z,100698.39
2019-04-23T14:35:40.535Z,100693.89
2019-04-23T14:38:11.323Z,100695.64
2019-04-23T14:40:34.347Z,100688.29
2019-04-23T14:43:06.727Z,100690.34
2019-04-23T14:46:02.596Z,100695.44
2019-04-23T14:48:08.902Z,100695.24
2019-04-23T14:50:41.243Z,100698.44
2019-04-23T14:53:24.459Z,100697.02
2019-04-23T15:01:24.425Z,100692.27
2019-04-23T15:03:49.009Z,100696.73
2019-04-23T15:06:26.118Z,100690.27
2019-04-23T15:09:00.649Z,100698.60
2019-04-23T15:13:49.431Z,100697.66
2019-04-23T15:22:05.306Z,100680.37
2019-04-23T15:24:19.433Z,100689.89
2019-04-23T15:29:02.913Z,100678.26
2019-04-23T15:32:03.070Z,100678.47
2019-04-23T15:34:23.577Z,100673.92
2019-04-23T15:37:15.664Z,100676.70
2019-04-23T15:39:42.550Z,100672.58
2019-04-23T15:44:41.912Z,100667.94
2019-04-23T15:47:19.944Z,100674.48
2019-04-23T15:49:55.491Z,100677.33
2019-04-23T15:52:30.345Z,100675.30
2019-04-23T15:54:56.749Z,100670.95
2019-04-23T15:58:01.633Z,100680.17
2019-04-23T15:59:58.712Z,100678.03
2019-04-23T16:02:08.397Z,100681.61
2019-04-23T16:04:39.920Z,100681.54
2019-04-23T16:07:21.502Z,100680.99
2019-04-23T16:10:14.512Z,100680.97
2019-04-23T16:12:54.821Z,100684.81
2019-04-23T16:15:19.345Z,100683.12
2019-04-23T16:17:53.423Z,100692.47
2019-04-23T16:20:37.498Z,100693.25
2019-04-23T16:22:59.318Z,100689.39
2019-04-23T16:25:26.525Z,100700.75
2019-04-23T16:28:12.863Z,100695.33
2019-04-23T16:30:40.808Z,100692.23
2019-04-23T16:33:11.268Z,100691.75
2019-04-23T16:38:36.678Z,100693.67
2019-04-23T16:40:58.917Z,100698.62
2019-04-23T16:43:27.921Z,100697.83
2019-04-23T16:46:13.119Z,100697.36
2019-04-23T16:48:49.242Z,100700.28
2019-04-23T16:53:59.166Z,100700.87
2019-04-23T16:59:12.447Z,100699.73
2019-04-23T17:01:30.335Z,100698.17
2019-04-23T17:04:11.016Z,100700.88
2019-04-23T17:06:46.589Z,100700.39
2019-04-23T17:09:18.539Z,100697.70
2019-04-23T17:14:33.590Z,100705.42
2019-04-23T17:16:49.884Z,100711.30
2019-04-23T17:22:04.004Z,100710.62
2019-04-23T17:24:56.493Z,100717.20
2019-04-23T17:27:16.659Z,100719.22
2019-04-23T17:29:41.546Z,100720.05
2019-04-23T17:32:14.939Z,100724.25
2019-04-23T17:35:20.687Z,100724.56
2019-04-23T17:37:38.622Z,100722.22
2019-04-23T17:40:18.165Z,100725.08
2019-04-23T17:42:56.982Z,100731.12
2019-04-23T17:48:13.485Z,100732.78
2019-04-23T17:53:35.269Z,100738.82
2019-04-23T17:56:03.690Z,100740.51
2019-04-23T18:03:45.599Z,100744.17
2019-04-23T18:06:21.593Z,100739.47
2019-04-23T18:08:43.206Z,100739.64
2019-04-23T18:13:50.452Z,100743.50
2019-04-23T18:16:35.073Z,100747.02
2019-04-23T18:19:03.337Z,100750.02
2019-04-23T18:21:44.002Z,100747.51
2019-04-23T18:24:16.714Z,100749.22
2019-04-23T18:26:47.068Z,100753.23
2019-04-23T18:29:31.628Z,100754.56
2019-04-23T18:32:05.857Z,100756.72
2019-04-23T18:34:56.921Z,100753.83
2019-04-23T18:37:17.936Z,100754.84
2019-04-23T18:39:49.943Z,100757.33
2019-04-23T18:42:29.652Z,100753.47
2019-04-23T18:45:07.780Z,100753.64
2019-04-23T18:47:37.813Z,100759.33
2019-04-23T18:50:22.984Z,100757.62
2019-04-23T18:52:49.837Z,100755.83
2019-04-23T18:55:14.571Z,100753.53
2019-04-23T18:57:46.938Z,100754.84
2019-04-23T19:00:24.919Z,100752.79
2019-04-23T19:02:55.102Z,100753.28
2019-04-23T19:08:10.655Z,100749.02
2019-04-23T19:10:48.657Z,100755.85
2019-04-23T19:13:25.522Z,100750.72
2019-04-23T19:15:48.797Z,100755.02
2019-04-23T19:18:35.625Z,100751.08
2019-04-23T19:21:08.703Z,100749.03
2019-04-23T19:23:42.835Z,100748.98
2019-04-23T19:26:07.986Z,100753.48
2019-04-23T19:34:02.913Z,100750.32
2019-04-23T19:36:40.167Z,100745.73
2019-04-23T19:39:11.836Z,100752.58
2019-04-23T19:41:57.496Z,100751.08
2019-04-23T19:46:57.627Z,100755.02
2019-04-23T19:54:39.338Z,100755.31
2019-04-23T20:02:07.371Z,100747.00
2019-04-23T20:07:22.742Z,100748.78
2019-04-23T20:12:13.492Z,100760.45
2019-04-23T20:14:52.173Z,100757.64
2019-04-23T20:20:18.387Z,100763.92
2019-04-23T20:22:48.963Z,100766.37
2019-04-23T20:25:43.863Z,100761.85
2019-04-23T20:27:58.325Z,100768.91
2019-04-23T20:35:56.649Z,100771.52
2019-04-23T20:41:14.682Z,100771.91
2019-04-23T20:43:50.038Z,100763.63
2019-04-23T20:46:14.811Z,100778.52
2019-04-23T20:48:53.686Z,100764.75
2019-04-23T20:51:24.494Z,100771.19
2019-04-23T20:53:59.788Z,100774.20
2019-04-23T20:56:34.045Z,100771.81
2019-04-23T20:59:03.054Z,100775.19
2019-04-23T21:01:46.744Z,100774.00
2019-04-23T21:04:13.263Z,100773.78
2019-04-23T21:12:29.648Z,100775.40
2019-04-23T21:14:55.728Z,100773.05
2019-04-23T21:17:05.345Z,100771.55
2019-04-23T21:19:50.450Z,100773.86
2019-04-23T21:24:53.116Z,100773.28
2019-04-23T21:27:38.692Z,100781.41
2019-04-23T21:30:06.781Z,100783.48
2019-04-23T21:32:56.072Z,100784.78
2019-04-23T21:35:30.423Z,100781.02
2019-04-23T21:37:54.099Z,100784.08
2019-04-23T21:43:32.406Z,100784.78
2019-04-23T21:45:56.866Z,100775.40
2019-04-23T21:48:36.740Z,100773.45
2019-04-23T21:50:57.544Z,100777.74
2019-04-23T21:53:24.259Z,100786.27
2019-04-23T21:56:05.601Z,100781.44
2019-04-23T21:58:38.908Z,100783.75
2019-04-23T22:01:27.463Z,100776.35
2019-04-23T22:04:13.218Z,100774.55
2019-04-23T22:19:14.937Z,100786.41
2019-04-23T22:24:11.957Z,100791.73
2019-04-23T22:26:45.313Z,100778.77
2019-04-23T22:29:26.064Z,100785.11
2019-04-23T22:32:04.399Z,100781.00
2019-04-23T22:34:30.889Z,100783.16
2019-04-23T22:37:10.972Z,100787.81
2019-04-23T22:39:35.620Z,100788.72
2019-04-23T22:42:22.364Z,100782.02
2019-04-23T22:47:07.154Z,100783.84
2019-04-23T22:50:06.129Z,100789.16
2019-04-23T22:52:23.007Z,100787.30
2019-04-23T22:55:02.390Z,100787.02
2019-04-23T23:00:14.394Z,100789.47
2019-04-23T23:03:11.666Z,100784.95
2019-04-23T23:08:11.518Z,100787.80
2019-04-23T23:10:39.608Z,100789.53
2019-04-23T23:13:15.091Z,100800.69
2019-04-23T23:18:19.814Z,100801.47
2019-04-23T23:21:04.093Z,100800.56
2019-04-23T23:26:14.221Z,100804.00
2019-04-23T23:28:41.110Z,100802.48
2019-04-23T23:31:10.030Z,100805.58
2019-04-23T23:33:47.177Z,100808.95
2019-04-23T23:41:26.512Z,100809.34
2019-04-23T23:44:20.821Z,100809.69
2019-04-23T23:46:37.590Z,100813.70
2019-04-23T23:49:11.423Z,100812.92
2019-04-23T23:54:13.991Z,100821.61
2019-04-23T23:57:07.927Z,100819.45
2019-04-23T23:59:26.935Z,100817.11
